sensor_id;sensor_type;location;lat;lon;timestamp;pressure;altitude;pressure_sealevel;temperature;humidity
59939;BME280;45801;51.810;19.444;2023-01-26T00:01:18;99909.00;;;3.13;67.23
59939;BME280;45801;51.810;19.444;2023-01-26T00:03:46;99905.79;;;3.14;67.24
59939;BME280;45801;51.810;19.444;2023-01-26T00:06:17;99903.41;;;3.17;67.06
59939;BME280;45801;51.810;19.444;2023-01-26T00:09:02;99901.92;;;3.18;67.27
59939;BME280;45801;51.810;19.444;2023-01-26T00:11:30;99897.44;;;3.18;67.04
59939;BME280;45801;51.810;19.444;2023-01-26T00:13:58;99900.67;;;3.20;67.12
59939;BME280;45801;51.810;19.444;2023-01-26T00:16:26;99899.95;;;3.21;67.16
59939;BME280;45801;51.810;19.444;2023-01-26T00:18:53;99891.64;;;3.23;67.25
59939;BME280;45801;51.810;19.444;2023-01-26T00:21:21;99893.29;;;3.25;67.13
59939;BME280;45801;51.810;19.444;2023-01-26T00:23:49;99888.30;;;3.25;67.24
59939;BME280;45801;51.810;19.444;2023-01-26T00:26:19;99881.66;;;3.26;67.43
59939;BME280;45801;51.810;19.444;2023-01-26T00:28:47;99874.77;;;3.27;67.46
59939;BME280;45801;51.810;19.444;2023-01-26T00:31:19;99876.39;;;3.27;67.37
59939;BME280;45801;51.810;19.444;2023-01-26T00:33:46;99881.56;;;3.29;67.52
59939;BME280;45801;51.810;19.444;2023-01-26T00:36:14;99877.40;;;3.29;67.78
59939;BME280;45801;51.810;19.444;2023-01-26T00:38:41;99881.31;;;3.30;67.63
59939;BME280;45801;51.810;19.444;2023-01-26T00:41:08;99881.21;;;3.31;67.46
59939;BME280;45801;51.810;19.444;2023-01-26T00:43:36;99876.58;;;3.31;67.48
59939;BME280;45801;51.810;19.444;2023-01-26T00:46:02;99881.05;;;3.33;67.61
59939;BME280;45801;51.810;19.444;2023-01-26T00:48:29;99875.86;;;3.36;67.47
59939;BME280;45801;51.810;19.444;2023-01-26T00:50:55;99875.06;;;3.36;67.27
59939;BME280;45801;51.810;19.444;2023-01-26T00:53:22;99877.77;;;3.35;67.48
59939;BME280;45801;51.810;19.444;2023-01-26T00:55:48;99886.52;;;3.34;67.64
59939;BME280;45801;51.810;19.444;2023-01-26T00:58:15;99882.55;;;3.35;67.59
59939;BME280;45801;51.810;19.444;2023-01-26T01:00:41;99878.67;;;3.32;67.62
59939;BME280;45801;51.810;19.444;2023-01-26T01:03:08;99873.79;;;3.27;67.81
59939;BME280;45801;51.810;19.444;2023-01-26T01:05:34;99874.80;;;3.27;67.90
59939;BME280;45801;51.810;19.444;2023-01-26T01:08:01;99878.72;;;3.28;67.68
59939;BME280;45801;51.810;19.444;2023-01-26T01:10:29;99878.44;;;3.29;67.64
59939;BME280;45801;51.810;19.444;2023-01-26T01:12:55;99878.48;;;3.29;67.56
59939;BME280;45801;51.810;19.444;2023-01-26T01:15:23;99876.07;;;3.32;67.72
59939;BME280;45801;51.810;19.444;2023-01-26T01:17:51;99871.77;;;3.34;67.72
59939;BME280;45801;51.810;19.444;2023-01-26T01:20:18;99871.94;;;3.37;67.59
59939;BME280;45801;51.810;19.444;2023-01-26T01:22:44;99868.33;;;3.37;67.62
59939;BME280;45801;51.810;19.444;2023-01-26T01:25:11;99861.55;;;3.39;67.71
59939;BME280;45801;51.810;19.444;2023-01-26T01:27:39;99857.44;;;3.39;67.72
59939;BME280;45801;51.810;19.444;2023-01-26T01:30:05;99852.59;;;3.39;67.64
59939;BME280;45801;51.810;19.444;2023-01-26T01:32:34;99848.92;;;3.39;67.84
59939;BME280;45801;51.810;19.444;2023-01-26T01:35:02;99847.27;;;3.40;67.85
59939;BME280;45801;51.810;19.444;2023-01-26T01:37:29;99840.96;;;3.41;67.73
59939;BME280;45801;51.810;19.444;2023-01-26T01:39:56;99835.09;;;3.42;67.61
59939;BME280;45801;51.810;19.444;2023-01-26T01:42:23;99834.42;;;3.42;67.90
59939;BME280;45801;51.810;19.444;2023-01-26T01:47:45;99825.88;;;3.43;67.88
59939;BME280;45801;51.810;19.444;2023-01-26T01:50:14;99823.25;;;3.44;67.80
59939;BME280;45801;51.810;19.444;2023-01-26T01:52:41;99820.67;;;3.45;67.74
59939;BME280;45801;51.810;19.444;2023-01-26T01:55:09;99820.26;;;3.46;67.85
59939;BME280;45801;51.810;19.444;2023-01-26T01:57:40;99817.48;;;3.46;67.95
59939;BME280;45801;51.810;19.444;2023-01-26T02:00:19;99817.13;;;3.46;67.82
59939;BME280;45801;51.810;19.444;2023-01-26T02:02:51;99813.66;;;3.46;67.81
59939;BME280;45801;51.810;19.444;2023-01-26T02:08:28;99808.20;;;3.47;67.95
59939;BME280;45801;51.810;19.444;2023-01-26T02:10:58;99804.58;;;3.47;67.85
59939;BME280;45801;51.810;19.444;2023-01-26T02:13:26;99803.75;;;3.48;67.86
59939;BME280;45801;51.810;19.444;2023-01-26T02:15:54;99800.67;;;3.48;67.96
59939;BME280;45801;51.810;19.444;2023-01-26T02:18:27;99796.52;;;3.48;68.06
59939;BME280;45801;51.810;19.444;2023-01-26T02:21:05;99793.35;;;3.48;67.88
59939;BME280;45801;51.810;19.444;2023-01-26T02:26:25;99782.13;;;3.46;67.90
59939;BME280;45801;51.810;19.444;2023-01-26T02:28:53;99775.91;;;3.46;68.03
59939;BME280;45801;51.810;19.444;2023-01-26T02:31:22;99776.18;;;3.45;68.09
59939;BME280;45801;51.810;19.444;2023-01-26T02:33:49;99777.11;;;3.46;68.04
59939;BME280;45801;51.810;19.444;2023-01-26T02:36:19;99779.55;;;3.46;68.10
59939;BME280;45801;51.810;19.444;2023-01-26T02:41:56;99777.00;;;3.45;68.07
59939;BME280;45801;51.810;19.444;2023-01-26T02:44:42;99775.36;;;3.43;68.16
59939;BME280;45801;51.810;19.444;2023-01-26T02:47:14;99775.95;;;3.42;68.13
59939;BME280;45801;51.810;19.444;2023-01-26T02:49:41;99767.27;;;3.42;68.27
59939;BME280;45801;51.810;19.444;2023-01-26T02:52:21;99758.23;;;3.42;68.16
59939;BME280;45801;51.810;19.444;2023-01-26T02:54:52;99753.83;;;3.43;68.14
59939;BME280;45801;51.810;19.444;2023-01-26T02:57:37;99751.30;;;3.50;68.62
59939;BME280;45801;51.810;19.444;2023-01-26T03:00:07;99747.23;;;3.69;68.17
59939;BME280;45801;51.810;19.444;2023-01-26T03:02:34;99739.52;;;3.72;67.69
59939;BME280;45801;51.810;19.444;2023-01-26T03:05:01;99735.14;;;3.71;67.90
59939;BME280;45801;51.810;19.444;2023-01-26T03:07:30;99737.66;;;3.71;67.95
59939;BME280;45801;51.810;19.444;2023-01-26T03:09:56;99736.73;;;3.69;68.11
59939;BME280;45801;51.810;19.444;2023-01-26T03:12:26;99730.42;;;3.69;67.96
59939;BME280;45801;51.810;19.444;2023-01-26T03:14:52;99723.95;;;3.68;67.81
59939;BME280;45801;51.810;19.444;2023-01-26T03:17:47;99723.30;;;3.66;67.89
59939;BME280;45801;51.810;19.444;2023-01-26T03:20:14;99722.34;;;3.65;67.85
59939;BME280;45801;51.810;19.444;2023-01-26T03:22:59;99721.02;;;3.64;67.94
59939;BME280;45801;51.810;19.444;2023-01-26T03:25:44;99717.10;;;3.62;67.84
59939;BME280;45801;51.810;19.444;2023-01-26T03:28:29;99715.39;;;3.63;67.98
59939;BME280;45801;51.810;19.444;2023-01-26T03:30:56;99712.16;;;3.63;67.97
59939;BME280;45801;51.810;19.444;2023-01-26T03:33:23;99705.89;;;3.63;67.96
59939;BME280;45801;51.810;19.444;2023-01-26T03:35:52;99702.44;;;3.63;67.95
59939;BME280;45801;51.810;19.444;2023-01-26T03:38:19;99702.83;;;3.64;68.00
59939;BME280;45801;51.810;19.444;2023-01-26T03:40:46;99703.09;;;3.65;67.95
59939;BME280;45801;51.810;19.444;2023-01-26T03:43:31;99700.85;;;3.65;67.96
59939;BME280;45801;51.810;19.444;2023-01-26T03:46:17;99699.73;;;3.66;67.82
59939;BME280;45801;51.810;19.444;2023-01-26T03:49:02;99692.58;;;3.66;67.82
59939;BME280;45801;51.810;19.444;2023-01-26T03:51:48;99687.84;;;3.65;67.93
59939;BME280;45801;51.810;19.444;2023-01-26T03:54:34;99687.45;;;3.64;67.92
59939;BME280;45801;51.810;19.444;2023-01-26T03:57:20;99684.91;;;3.63;67.98
59939;BME280;45801;51.810;19.444;2023-01-26T03:59:46;99684.75;;;3.63;67.97
59939;BME280;45801;51.810;19.444;2023-01-26T04:02:12;99682.42;;;3.62;67.93
59939;BME280;45801;51.810;19.444;2023-01-26T04:04:57;99680.19;;;3.60;67.93
59939;BME280;45801;51.810;19.444;2023-01-26T04:07:43;99673.89;;;3.59;67.98
59939;BME280;45801;51.810;19.444;2023-01-26T04:10:28;99670.89;;;3.58;67.86
59939;BME280;45801;51.810;19.444;2023-01-26T04:12:54;99667.90;;;3.58;67.80
59939;BME280;45801;51.810;19.444;2023-01-26T04:15:40;99670.06;;;3.57;67.76
59939;BME280;45801;51.810;19.444;2023-01-26T04:18:25;99676.98;;;3.57;67.96
59939;BME280;45801;51.810;19.444;2023-01-26T04:21:11;99674.00;;;3.56;68.00
59939;BME280;45801;51.810;19.444;2023-01-26T04:23:58;99675.04;;;3.59;67.73
59939;BME280;45801;51.810;19.444;2023-01-26T04:26:29;99679.15;;;3.60;67.73
59939;BME280;45801;51.810;19.444;2023-01-26T04:29:08;99680.02;;;3.60;67.50
59939;BME280;45801;51.810;19.444;2023-01-26T04:31:36;99678.87;;;3.61;67.64
59939;BME280;45801;51.810;19.444;2023-01-26T04:34:04;99677.23;;;3.62;67.60
59939;BME280;45801;51.810;19.444;2023-01-26T04:36:31;99672.80;;;3.63;67.42
59939;BME280;45801;51.810;19.444;2023-01-26T04:38:58;99668.56;;;3.64;67.39
59939;BME280;45801;51.810;19.444;2023-01-26T04:41:25;99669.56;;;3.64;67.41
59939;BME280;45801;51.810;19.444;2023-01-26T04:43:51;99673.59;;;3.62;67.47
59939;BME280;45801;51.810;19.444;2023-01-26T04:46:18;99672.16;;;3.61;67.40
59939;BME280;45801;51.810;19.444;2023-01-26T04:48:44;99665.70;;;3.59;67.15
59939;BME280;45801;51.810;19.444;2023-01-26T04:51:13;99660.82;;;3.56;67.15
59939;BME280;45801;51.810;19.444;2023-01-26T04:53:41;99661.65;;;3.55;67.23
59939;BME280;45801;51.810;19.444;2023-01-26T04:56:19;99663.26;;;3.56;67.15
59939;BME280;45801;51.810;19.444;2023-01-26T04:58:47;99661.70;;;3.54;66.55
59939;BME280;45801;51.810;19.444;2023-01-26T05:01:15;99656.54;;;3.52;66.89
59939;BME280;45801;51.810;19.444;2023-01-26T05:03:41;99658.67;;;3.52;66.97
59939;BME280;45801;51.810;19.444;2023-01-26T05:06:08;99658.77;;;3.49;66.40
59939;BME280;45801;51.810;19.444;2023-01-26T05:08:36;99655.85;;;3.47;66.61
59939;BME280;45801;51.810;19.444;2023-01-26T05:11:03;99661.17;;;3.49;66.70
59939;BME280;45801;51.810;19.444;2023-01-26T05:13:30;99668.55;;;3.50;66.23
59939;BME280;45801;51.810;19.444;2023-01-26T05:15:56;99668.22;;;3.49;66.46
59939;BME280;45801;51.810;19.444;2023-01-26T05:18:23;99666.98;;;3.48;66.70
59939;BME280;45801;51.810;19.444;2023-01-26T05:20:49;99660.77;;;3.48;66.53
59939;BME280;45801;51.810;19.444;2023-01-26T05:23:16;99660.77;;;3.48;66.22
59939;BME280;45801;51.810;19.444;2023-01-26T05:25:43;99659.36;;;3.46;66.13
59939;BME280;45801;51.810;19.444;2023-01-26T05:28:10;99661.52;;;3.45;66.30
59939;BME280;45801;51.810;19.444;2023-01-26T05:30:37;99663.68;;;3.44;66.51
59939;BME280;45801;51.810;19.444;2023-01-26T05:33:05;99656.44;;;3.42;66.44
59939;BME280;45801;51.810;19.444;2023-01-26T05:35:33;99652.53;;;3.36;65.58
59939;BME280;45801;51.810;19.444;2023-01-26T05:38:00;99654.70;;;3.35;66.26
59939;BME280;45801;51.810;19.444;2023-01-26T05:40:26;99655.64;;;3.34;66.19
59939;BME280;45801;51.810;19.444;2023-01-26T05:42:53;99656.77;;;3.32;66.57
59939;BME280;45801;51.810;19.444;2023-01-26T05:45:20;99654.19;;;3.33;66.44
59939;BME280;45801;51.810;19.444;2023-01-26T05:47:47;99654.03;;;3.33;66.37
59939;BME280;45801;51.810;19.444;2023-01-26T05:50:14;99652.20;;;3.34;66.54
59939;BME280;45801;51.810;19.444;2023-01-26T05:52:42;99654.49;;;3.37;66.63
59939;BME280;45801;51.810;19.444;2023-01-26T05:55:09;99657.35;;;3.38;66.30
59939;BME280;45801;51.810;19.444;2023-01-26T05:57:35;99660.52;;;3.39;66.35
59939;BME280;45801;51.810;19.444;2023-01-26T06:00:04;99659.39;;;3.40;66.46
59939;BME280;45801;51.810;19.444;2023-01-26T06:02:30;99657.70;;;3.40;66.41
59939;BME280;45801;51.810;19.444;2023-01-26T06:04:57;99655.52;;;3.39;65.38
59939;BME280;45801;51.810;19.444;2023-01-26T06:07:23;99651.92;;;3.37;65.96
59939;BME280;45801;51.810;19.444;2023-01-26T06:09:51;99645.72;;;3.38;66.05
59939;BME280;45801;51.810;19.444;2023-01-26T06:12:19;99643.21;;;3.39;66.03
59939;BME280;45801;51.810;19.444;2023-01-26T06:14:46;99642.12;;;3.40;65.74
59939;BME280;45801;51.810;19.444;2023-01-26T06:17:15;99635.91;;;3.41;65.94
59939;BME280;45801;51.810;19.444;2023-01-26T06:19:43;99636.80;;;3.39;65.83
59939;BME280;45801;51.810;19.444;2023-01-26T06:22:10;99635.44;;;3.39;65.87
59939;BME280;45801;51.810;19.444;2023-01-26T06:24:37;99636.67;;;3.39;65.78
59939;BME280;45801;51.810;19.444;2023-01-26T06:27:07;99634.54;;;3.39;65.68
59939;BME280;45801;51.810;19.444;2023-01-26T06:29:37;99633.94;;;3.40;65.79
59939;BME280;45801;51.810;19.444;2023-01-26T06:32:03;99632.04;;;3.40;65.78
59939;BME280;45801;51.810;19.444;2023-01-26T06:34:30;99634.27;;;3.40;65.39
59939;BME280;45801;51.810;19.444;2023-01-26T06:36:58;99631.73;;;3.40;65.16
59939;BME280;45801;51.810;19.444;2023-01-26T06:39:25;99633.09;;;3.40;65.22
59939;BME280;45801;51.810;19.444;2023-01-26T06:41:52;99635.18;;;3.40;65.01
59939;BME280;45801;51.810;19.444;2023-01-26T06:44:18;99634.35;;;3.36;64.73
59939;BME280;45801;51.810;19.444;2023-01-26T06:46:45;99630.36;;;3.34;64.41
59939;BME280;45801;51.810;19.444;2023-01-26T06:49:12;99628.48;;;3.34;64.16
59939;BME280;45801;51.810;19.444;2023-01-26T06:51:51;99627.65;;;3.34;64.22
59939;BME280;45801;51.810;19.444;2023-01-26T06:54:18;99628.46;;;3.31;63.99
59939;BME280;45801;51.810;19.444;2023-01-26T06:56:44;99630.55;;;3.29;63.35
59939;BME280;45801;51.810;19.444;2023-01-26T06:59:11;99633.21;;;3.26;63.04
59939;BME280;45801;51.810;19.444;2023-01-26T07:01:40;99634.09;;;3.24;63.92
59939;BME280;45801;51.810;19.444;2023-01-26T07:04:09;99635.52;;;3.22;64.38
59939;BME280;45801;51.810;19.444;2023-01-26T07:06:36;99634.15;;;3.23;64.10
59939;BME280;45801;51.810;19.444;2023-01-26T07:09:03;99637.77;;;3.25;64.26
59939;BME280;45801;51.810;19.444;2023-01-26T07:11:29;99637.65;;;3.25;63.64
59939;BME280;45801;51.810;19.444;2023-01-26T07:13:58;99635.27;;;3.21;63.59
59939;BME280;45801;51.810;19.444;2023-01-26T07:16:25;99638.14;;;3.22;64.45
59939;BME280;45801;51.810;19.444;2023-01-26T07:18:52;99642.27;;;3.24;64.55
59939;BME280;45801;51.810;19.444;2023-01-26T07:21:20;99638.63;;;3.26;64.27
59939;BME280;45801;51.810;19.444;2023-01-26T07:23:49;99638.84;;;3.29;64.45
59939;BME280;45801;51.810;19.444;2023-01-26T07:26:19;99640.52;;;3.31;64.70
59939;BME280;45801;51.810;19.444;2023-01-26T07:28:46;99639.76;;;3.32;64.58
59939;BME280;45801;51.810;19.444;2023-01-26T07:31:12;99635.67;;;3.33;64.16
59939;BME280;45801;51.810;19.444;2023-01-26T07:33:39;99636.66;;;3.34;63.84
59939;BME280;45801;51.810;19.444;2023-01-26T07:36:06;99632.41;;;3.38;64.24
59939;BME280;45801;51.810;19.444;2023-01-26T07:38:33;99629.75;;;3.42;64.01
59939;BME280;45801;51.810;19.444;2023-01-26T07:41:07;99632.14;;;3.43;64.21
59939;BME280;45801;51.810;19.444;2023-01-26T07:43:36;99628.89;;;3.42;63.95
59939;BME280;45801;51.810;19.444;2023-01-26T07:46:04;99622.17;;;3.40;63.91
59939;BME280;45801;51.810;19.444;2023-01-26T07:48:30;99615.94;;;3.35;63.02
59939;BME280;45801;51.810;19.444;2023-01-26T07:50:58;99616.71;;;3.36;63.90
59939;BME280;45801;51.810;19.444;2023-01-26T07:53:25;99615.63;;;3.33;63.68
59939;BME280;45801;51.810;19.444;2023-01-26T07:56:07;99610.86;;;3.32;63.75
59939;BME280;45801;51.810;19.444;2023-01-26T07:58:34;99607.87;;;3.32;63.93
59939;BME280;45801;51.810;19.444;2023-01-26T08:01:10;99602.90;;;3.32;64.26
59939;BME280;45801;51.810;19.444;2023-01-26T08:03:37;99600.33;;;3.30;64.18
59939;BME280;45801;51.810;19.444;2023-01-26T08:06:05;99604.80;;;3.28;64.01
59939;BME280;45801;51.810;19.444;2023-01-26T08:08:33;99611.23;;;3.30;64.47
59939;BME280;45801;51.810;19.444;2023-01-26T08:11:00;99614.80;;;3.32;64.28
59939;BME280;45801;51.810;19.444;2023-01-26T08:13:29;99613.50;;;3.33;64.24
59939;BME280;45801;51.810;19.444;2023-01-26T08:16:06;99614.40;;;3.33;64.50
59939;BME280;45801;51.810;19.444;2023-01-26T08:18:38;99613.79;;;3.36;64.52
59939;BME280;45801;51.810;19.444;2023-01-26T08:21:06;99611.98;;;3.38;64.45
59939;BME280;45801;51.810;19.444;2023-01-26T08:23:33;99617.48;;;3.40;64.70
59939;BME280;45801;51.810;19.444;2023-01-26T08:26:01;99618.44;;;3.43;64.80
59939;BME280;45801;51.810;19.444;2023-01-26T08:28:28;99618.48;;;3.44;64.76
59939;BME280;45801;51.810;19.444;2023-01-26T08:30:54;99618.43;;;3.45;64.73
59939;BME280;45801;51.810;19.444;2023-01-26T08:33:22;99620.27;;;3.49;64.92
59939;BME280;45801;51.810;19.444;2023-01-26T08:35:49;99628.58;;;3.44;64.35
59939;BME280;45801;51.810;19.444;2023-01-26T08:38:16;99628.54;;;3.44;64.43
59939;BME280;45801;51.810;19.444;2023-01-26T08:40:42;99630.66;;;3.40;63.81
59939;BME280;45801;51.810;19.444;2023-01-26T08:43:08;99632.34;;;3.39;64.37
59939;BME280;45801;51.810;19.444;2023-01-26T08:45:35;99632.41;;;3.40;64.42
59939;BME280;45801;51.810;19.444;2023-01-26T08:48:01;99633.53;;;3.39;64.28
59939;BME280;45801;51.810;19.444;2023-01-26T08:50:28;99639.34;;;3.40;64.37
59939;BME280;45801;51.810;19.444;2023-01-26T08:52:55;99642.39;;;3.42;64.36
59939;BME280;45801;51.810;19.444;2023-01-26T08:55:22;99643.00;;;3.43;64.22
59939;BME280;45801;51.810;19.444;2023-01-26T08:57:51;99637.13;;;3.43;63.96
59939;BME280;45801;51.810;19.444;2023-01-26T09:00:22;99639.56;;;3.43;64.20
59939;BME280;45801;51.810;19.444;2023-01-26T09:02:48;99641.86;;;3.44;63.94
59939;BME280;45801;51.810;19.444;2023-01-26T09:05:15;99644.95;;;3.45;64.44
59939;BME280;45801;51.810;19.444;2023-01-26T09:07:42;99645.50;;;3.39;63.76
59939;BME280;45801;51.810;19.444;2023-01-26T09:10:10;99647.30;;;3.38;63.84
59939;BME280;45801;51.810;19.444;2023-01-26T09:12:36;99651.60;;;3.37;63.78
59939;BME280;45801;51.810;19.444;2023-01-26T09:15:04;99649.55;;;3.38;64.31
59939;BME280;45801;51.810;19.444;2023-01-26T09:17:30;99648.58;;;3.41;64.57
59939;BME280;45801;51.810;19.444;2023-01-26T09:19:57;99651.39;;;3.40;64.53
59939;BME280;45801;51.810;19.444;2023-01-26T09:22:25;99656.26;;;3.37;64.50
59939;BME280;45801;51.810;19.444;2023-01-26T09:24:51;99658.52;;;3.35;64.10
59939;BME280;45801;51.810;19.444;2023-01-26T09:27:18;99656.09;;;3.35;64.05
59939;BME280;45801;51.810;19.444;2023-01-26T09:29:45;99654.77;;;3.36;64.35
59939;BME280;45801;51.810;19.444;2023-01-26T09:32:11;99652.44;;;3.35;64.04
59939;BME280;45801;51.810;19.444;2023-01-26T09:34:38;99648.36;;;3.38;64.29
59939;BME280;45801;51.810;19.444;2023-01-26T09:37:08;99646.36;;;3.41;64.66
59939;BME280;45801;51.810;19.444;2023-01-26T09:39:35;99643.72;;;3.41;64.42
59939;BME280;45801;51.810;19.444;2023-01-26T09:44:45;99632.80;;;3.41;64.28
59939;BME280;45801;51.810;19.444;2023-01-26T09:47:20;99623.85;;;3.42;64.60
59939;BME280;45801;51.810;19.444;2023-01-26T09:50:09;99616.53;;;3.43;64.26
59939;BME280;45801;51.810;19.444;2023-01-26T09:52:52;99614.23;;;3.45;64.23
59939;BME280;45801;51.810;19.444;2023-01-26T09:55:22;99615.05;;;3.44;64.40
59939;BME280;45801;51.810;19.444;2023-01-26T09:57:56;99617.29;;;3.44;64.45
59939;BME280;45801;51.810;19.444;2023-01-26T10:03:19;99610.98;;;3.39;64.34
59939;BME280;45801;51.810;19.444;2023-01-26T10:06:17;99604.91;;;3.39;64.48
59939;BME280;45801;51.810;19.444;2023-01-26T10:08:48;99602.89;;;3.26;63.89
59939;BME280;45801;51.810;19.444;2023-01-26T10:11:41;99604.39;;;3.11;63.90
59939;BME280;45801;51.810;19.444;2023-01-26T10:14:14;99604.43;;;3.01;64.48
59939;BME280;45801;51.810;19.444;2023-01-26T10:16:46;99600.52;;;3.04;65.09
59939;BME280;45801;51.810;19.444;2023-01-26T10:19:33;99594.67;;;3.00;64.73
59939;BME280;45801;51.810;19.444;2023-01-26T10:22:10;99588.79;;;3.02;65.08
59939;BME280;45801;51.810;19.444;2023-01-26T10:24:38;99585.76;;;3.06;65.35
59939;BME280;45801;51.810;19.444;2023-01-26T10:27:10;99588.68;;;3.08;64.99
59939;BME280;45801;51.810;19.444;2023-01-26T10:29:39;99585.05;;;3.08;64.98
59939;BME280;45801;51.810;19.444;2023-01-26T10:32:12;99577.94;;;3.07;64.57
59939;BME280;45801;51.810;19.444;2023-01-26T10:34:40;99575.48;;;3.09;64.70
59939;BME280;45801;51.810;19.444;2023-01-26T10:37:22;99578.60;;;3.09;64.70
59939;BME280;45801;51.810;19.444;2023-01-26T10:39:59;99579.63;;;3.11;64.93
59939;BME280;45801;51.810;19.444;2023-01-26T10:42:28;99573.12;;;3.16;65.06
59939;BME280;45801;51.810;19.444;2023-01-26T10:44:56;99571.63;;;3.29;65.56
59939;BME280;45801;51.810;19.444;2023-01-26T10:47:23;99567.84;;;3.61;65.14
59939;BME280;45801;51.810;19.444;2023-01-26T10:49:51;99560.98;;;3.73;63.61
59939;BME280;45801;51.810;19.444;2023-01-26T10:52:20;99557.80;;;3.72;63.26
59939;BME280;45801;51.810;19.444;2023-01-26T10:54:51;99557.41;;;3.72;63.96
59939;BME280;45801;51.810;19.444;2023-01-26T10:57:38;99556.33;;;3.71;63.91
59939;BME280;45801;51.810;19.444;2023-01-26T11:00:09;99553.23;;;3.72;63.85
59939;BME280;45801;51.810;19.444;2023-01-26T11:03:35;99550.02;;;3.73;64.07
59939;BME280;45801;51.810;19.444;2023-01-26T11:05:39;99541.59;;;3.74;63.91
59939;BME280;45801;51.810;19.444;2023-01-26T11:08:35;99536.15;;;3.72;63.08
59939;BME280;45801;51.810;19.444;2023-01-26T11:11:03;99530.90;;;3.69;62.87
59939;BME280;45801;51.810;19.444;2023-01-26T11:13:30;99531.64;;;3.68;63.17
59939;BME280;45801;51.810;19.444;2023-01-26T11:18:59;99522.91;;;3.67;63.04
59939;BME280;45801;51.810;19.444;2023-01-26T11:21:40;99515.27;;;3.66;63.07
59939;BME280;45801;51.810;19.444;2023-01-26T11:24:32;99518.32;;;3.68;62.98
59939;BME280;45801;51.810;19.444;2023-01-26T11:27:26;99516.63;;;3.68;63.24
59939;BME280;45801;51.810;19.444;2023-01-26T11:33:00;99517.64;;;3.54;62.16
59939;BME280;45801;51.810;19.444;2023-01-26T11:35:53;99510.48;;;3.53;62.51
59939;BME280;45801;51.810;19.444;2023-01-26T11:38:44;99513.92;;;3.53;62.52
59939;BME280;45801;51.810;19.444;2023-01-26T11:41:23;99512.88;;;3.46;61.94
59939;BME280;45801;51.810;19.444;2023-01-26T11:53:05;99501.59;;;3.34;62.55
59939;BME280;45801;51.810;19.444;2023-01-26T12:00:56;99491.58;;;3.44;62.70
59939;BME280;45801;51.810;19.444;2023-01-26T12:03:50;99492.95;;;3.44;62.70
59939;BME280;45801;51.810;19.444;2023-01-26T12:08:51;99489.33;;;3.42;62.61
59939;BME280;45801;51.810;19.444;2023-01-26T12:13:58;99487.48;;;3.49;62.97
59939;BME280;45801;51.810;19.444;2023-01-26T12:16:34;99488.41;;;3.52;63.26
59939;BME280;45801;51.810;19.444;2023-01-26T12:19:11;99485.80;;;3.55;63.08
59939;BME280;45801;51.810;19.444;2023-01-26T12:21:43;99483.34;;;3.57;62.71
59939;BME280;45801;51.810;19.444;2023-01-26T12:24:36;99481.04;;;3.56;62.03
59939;BME280;45801;51.810;19.444;2023-01-26T12:27:02;99478.42;;;3.53;62.61
59939;BME280;45801;51.810;19.444;2023-01-26T12:29:51;99477.11;;;3.54;62.53
59939;BME280;45801;51.810;19.444;2023-01-26T12:32:21;99477.92;;;3.56;62.72
59939;BME280;45801;51.810;19.444;2023-01-26T12:34:48;99480.73;;;3.59;62.82
59939;BME280;45801;51.810;19.444;2023-01-26T12:40:48;99479.03;;;3.59;62.84
59939;BME280;45801;51.810;19.444;2023-01-26T12:46:06;99483.63;;;3.58;62.45
59939;BME280;45801;51.810;19.444;2023-01-26T12:49:24;99485.11;;;3.59;62.79
59939;BME280;45801;51.810;19.444;2023-01-26T12:51:53;99479.29;;;3.60;62.68
59939;BME280;45801;51.810;19.444;2023-01-26T12:55:01;99474.05;;;3.62;62.79
59939;BME280;45801;51.810;19.444;2023-01-26T12:57:21;99469.77;;;3.63;62.74
59939;BME280;45801;51.810;19.444;2023-01-26T12:59:50;99470.64;;;3.63;62.53
59939;BME280;45801;51.810;19.444;2023-01-26T13:02:29;99470.11;;;3.58;62.59
59939;BME280;45801;51.810;19.444;2023-01-26T13:04:59;99467.55;;;3.56;62.72
59939;BME280;45801;51.810;19.444;2023-01-26T13:07:36;99464.95;;;3.57;62.77
59939;BME280;45801;51.810;19.444;2023-01-26T13:12:54;99463.23;;;3.57;62.62
59939;BME280;45801;51.810;19.444;2023-01-26T13:15:26;99462.81;;;3.55;62.46
59939;BME280;45801;51.810;19.444;2023-01-26T13:17:54;99462.04;;;3.54;62.20
59939;BME280;45801;51.810;19.444;2023-01-26T13:20:59;99463.08;;;3.52;62.62
59939;BME280;45801;51.810;19.444;2023-01-26T13:23:37;99466.09;;;3.53;62.40
59939;BME280;45801;51.810;19.444;2023-01-26T13:26:15;99461.39;;;3.52;61.66
59939;BME280;45801;51.810;19.444;2023-01-26T13:28:43;99459.69;;;3.53;61.48
59939;BME280;45801;51.810;19.444;2023-01-26T13:31:11;99459.85;;;3.55;62.36
59939;BME280;45801;51.810;19.444;2023-01-26T13:33:40;99462.48;;;3.58;62.22
59939;BME280;45801;51.810;19.444;2023-01-26T13:36:15;99463.33;;;3.58;62.54
59939;BME280;45801;51.810;19.444;2023-01-26T13:38:57;99461.40;;;3.57;62.32
59939;BME280;45801;51.810;19.444;2023-01-26T13:41:25;99463.39;;;3.58;62.70
59939;BME280;45801;51.810;19.444;2023-01-26T13:44:03;99464.06;;;3.60;62.58
59939;BME280;45801;51.810;19.444;2023-01-26T13:46:38;99461.56;;;3.62;62.31
59939;BME280;45801;51.810;19.444;2023-01-26T13:49:46;99462.95;;;3.62;62.18
59939;BME280;45801;51.810;19.444;2023-01-26T13:52:18;99466.58;;;3.60;61.70
59939;BME280;45801;51.810;19.444;2023-01-26T13:54:47;99473.58;;;3.58;61.36
59939;BME280;45801;51.810;19.444;2023-01-26T13:57:26;99472.00;;;3.58;62.20
59939;BME280;45801;51.810;19.444;2023-01-26T13:59:59;99467.73;;;3.59;62.09
59939;BME280;45801;51.810;19.444;2023-01-26T14:02:27;99462.23;;;3.61;61.96
59939;BME280;45801;51.810;19.444;2023-01-26T14:04:57;99458.20;;;3.61;61.22
59939;BME280;45801;51.810;19.444;2023-01-26T14:07:31;99458.46;;;3.60;61.52
59939;BME280;45801;51.810;19.444;2023-01-26T14:10:00;99453.61;;;3.60;61.80
59939;BME280;45801;51.810;19.444;2023-01-26T14:12:39;99448.75;;;3.60;61.58
59939;BME280;45801;51.810;19.444;2023-01-26T14:15:20;99446.90;;;3.58;60.66